Time;durP1;ratioP1;P1;durP2;ratioP2;P2;SDS_P1;SDS_P2;PMS_P1;PMS_P2;Temp;Humidity;BMP_temperature;BMP_pressure;BME280_temperature;BME280_humidity;BME280_pressure;Samples;Min_cycle;Max_cycle;Signal;HPM_P1;HPM_P2
2021/06/07 00:02:16;;;;;;;7.13;1.83;;;17.40;99.90;;;16.82;94.91;100705.00;5066321;28;20043;-59
2021/06/07 00:04:42;;;;;;;4.10;1.83;;;17.40;99.90;;;16.80;94.98;100709.63;5066428;28;20040;-59
2021/06/07 00:07:11;;;;;;;1.88;1.75;;;17.40;99.90;;;16.77;94.99;100708.16;5065630;28;20126;-61
2021/06/07 00:09:39;;;;;;;2.22;1.20;;;17.30;99.90;;;16.79;94.57;100707.97;5065776;28;20021;-61
2021/06/07 00:12:16;;;;;;;2.22;1.58;;;17.40;99.90;;;16.83;94.05;100717.16;5067119;28;20052;-62
2021/06/07 00:14:42;;;;;;;2.05;1.58;;;17.40;99.90;;;16.86;93.76;100711.53;5066596;28;20055;-62
2021/06/07 00:17:09;;;;;;;3.13;1.35;;;17.40;99.90;;;16.89;93.46;100709.38;5066279;28;20033;-62
2021/06/07 00:19:38;;;;;;;1.50;1.27;;;17.40;99.90;;;16.90;93.87;100710.19;5067052;28;20033;-62
2021/06/07 00:22:06;;;;;;;8.13;1.85;;;17.40;99.90;;;16.89;93.90;100712.00;5066454;28;20059;-61
2021/06/07 00:24:32;;;;;;;4.18;1.90;;;17.40;99.90;;;16.91;93.68;100706.56;5066746;28;20039;-61
2021/06/07 00:26:58;;;;;;;1.52;1.42;;;17.40;99.90;;;16.93;93.82;100704.56;5066515;28;20040;-59
2021/06/07 00:29:25;;;;;;;3.10;1.70;;;17.50;99.90;;;16.95;93.90;100699.13;5068743;28;20036;-60
2021/06/07 00:31:51;;;;;;;4.85;1.70;;;17.50;99.90;;;16.97;94.21;100697.13;5070220;28;20032;-61
2021/06/07 00:34:17;;;;;;;4.25;1.83;;;17.50;99.90;;;16.92;94.23;100695.03;5083191;28;20503;-59
2021/06/07 00:36:43;;;;;;;4.63;2.03;;;17.50;99.90;;;16.89;94.45;100692.75;5070008;28;20139;-60
2021/06/07 00:39:16;;;;;;;3.10;1.35;;;17.50;99.90;;;16.94;93.95;100702.75;5068223;28;20086;-60
2021/06/07 00:41:46;;;;;;;2.00;1.25;;;17.50;99.90;;;16.99;93.08;100695.13;5070012;28;20474;-61
2021/06/07 00:44:20;;;;;;;1.83;0.98;;;17.50;99.90;;;17.06;92.20;100694.19;5068587;28;20119;-59
2021/06/07 00:46:46;;;;;;;7.28;1.48;;;17.50;99.90;;;17.11;91.78;100691.84;5084997;28;20048;-60
2021/06/07 00:49:12;;;;;;;4.03;1.30;;;17.60;99.90;;;17.12;91.72;100687.41;5070176;28;20112;-60
2021/06/07 00:51:40;;;;;;;3.03;1.25;;;17.60;99.90;;;17.10;91.74;100684.94;5084825;28;20048;-61
2021/06/07 00:54:07;;;;;;;1.45;1.35;;;17.60;99.90;;;17.04;92.48;100690.13;5069711;28;20177;-60
2021/06/07 00:56:34;;;;;;;2.53;1.33;;;17.60;99.90;;;17.00;92.75;100691.50;5068806;28;20390;-61
2021/06/07 00:59:00;;;;;;;2.08;1.17;;;17.60;99.90;;;16.98;92.71;100680.34;5069836;28;20037;-59
2021/06/07 01:01:28;;;;;;;1.75;1.65;;;17.60;99.90;;;16.96;93.27;100688.41;5069245;28;20029;-60
2021/06/07 01:03:57;;;;;;;3.17;1.30;;;17.50;99.90;;;16.92;93.98;100682.69;5085251;28;20083;-59
2021/06/07 01:06:24;;;;;;;4.93;1.70;;;17.50;99.90;;;16.90;94.19;100679.41;5069599;28;20031;-60
2021/06/07 01:08:50;;;;;;;5.20;1.30;;;17.50;99.90;;;16.85;94.67;100681.78;5067449;28;20043;-60
2021/06/07 01:11:18;;;;;;;3.10;1.50;;;17.40;99.90;;;16.82;94.48;100679.50;5069422;28;20036;-60
2021/06/07 01:13:45;;;;;;;2.38;1.05;;;17.40;99.90;;;16.92;93.44;100666.09;5069251;28;20043;-61
2021/06/07 01:16:12;;;;;;;2.90;1.20;;;17.50;99.90;;;16.90;93.14;100673.34;5069520;28;20451;-61
2021/06/07 01:18:38;;;;;;;3.53;1.02;;;17.50;99.90;;;16.84;93.11;100677.50;5068243;28;20036;-59
2021/06/07 01:21:09;;;;;;;2.03;1.45;;;17.40;99.90;;;16.77;93.63;100679.22;5069093;28;20040;-60
2021/06/07 01:23:36;;;;;;;1.75;1.25;;;17.40;99.90;;;16.68;94.20;100669.75;5068754;28;20048;-60
2021/06/07 01:26:05;;;;;;;3.42;1.33;;;17.30;99.90;;;16.66;94.03;100666.50;5068924;28;20044;-60
2021/06/07 01:28:31;;;;;;;2.83;1.15;;;17.20;99.90;;;16.69;93.69;100667.94;5068066;28;20535;-60
2021/06/07 01:30:59;;;;;;;3.95;1.63;;;17.20;99.90;;;16.64;94.03;100673.75;5069414;28;20471;-61
2021/06/07 01:33:27;;;;;;;2.78;1.25;;;17.20;99.90;;;16.58;94.56;100675.25;5069084;28;20063;-62
2021/06/07 01:35:57;;;;;;;3.08;1.42;;;17.20;99.90;;;16.50;94.82;100672.72;5069207;28;20040;-59
2021/06/07 01:38:25;;;;;;;2.83;1.40;;;17.10;99.90;;;16.52;95.08;100675.16;5067927;28;20123;-60
2021/06/07 01:40:58;;;;;;;4.55;1.90;;;17.10;99.90;;;16.49;95.00;100681.59;5083652;28;20526;-59
2021/06/07 01:43:26;;;;;;;1.70;1.50;;;17.10;99.90;;;16.40;95.58;100671.31;5068031;28;20070;-60
2021/06/07 01:45:52;;;;;;;6.78;1.75;;;17.00;99.90;;;16.40;95.61;100674.75;5069099;28;20058;-61
2021/06/07 01:48:21;;;;;;;6.43;1.42;;;17.00;99.90;;;16.36;95.62;100675.28;5068162;28;20029;-61
2021/06/07 01:50:48;;;;;;;5.35;1.33;;;17.00;99.90;;;16.30;96.08;100683.88;5068669;28;20033;-61
2021/06/07 01:53:17;;;;;;;3.50;1.80;;;16.90;99.90;;;16.29;95.96;100677.00;5068440;28;20028;-60
2021/06/07 01:55:47;;;;;;;4.72;1.98;;;16.90;99.90;;;16.27;96.24;100674.53;5068538;28;20043;-60
2021/06/07 01:58:15;;;;;;;3.95;1.80;;;16.90;99.90;;;16.20;96.39;100676.22;5068593;28;20028;-61
2021/06/07 02:00:49;;;;;;;6.25;1.85;;;16.80;99.90;;;16.19;96.44;100674.59;5068048;28;20466;-61
2021/06/07 02:03:18;;;;;;;3.45;2.72;;;16.80;99.90;;;16.16;96.45;100670.50;5067855;28;20040;-61
2021/06/07 02:05:48;;;;;;;3.80;2.90;;;16.80;99.90;;;16.13;96.15;100676.09;5067988;28;20104;-60
2021/06/07 02:08:16;;;;;;;7.75;2.05;;;16.70;99.90;;;16.12;96.24;100676.28;5068711;28;20040;-60
2021/06/07 02:10:51;;;;;;;3.42;2.58;;;16.80;99.90;;;16.15;95.60;100671.50;5067726;28;20484;-61
2021/06/07 02:13:18;;;;;;;2.85;2.20;;;16.80;99.90;;;16.19;95.37;100670.16;5068831;28;20044;-62
2021/06/07 02:16:00;;;;;;;2.72;2.53;;;16.70;99.90;;;16.18;95.58;100670.31;5067302;28;20058;-61
2021/06/07 02:18:27;;;;;;;5.53;1.83;;;16.80;99.90;;;16.20;95.64;100669.16;5067860;28;20043;-61
2021/06/07 02:20:54;;;;;;;3.40;2.15;;;16.80;99.90;;;16.22;95.23;100676.88;5067952;28;20425;-61
2021/06/07 02:23:20;;;;;;;2.60;2.40;;;16.80;99.90;;;16.20;95.41;100677.03;5067989;28;20477;-62
2021/06/07 02:25:47;;;;;;;3.90;2.30;;;16.80;99.90;;;16.18;95.65;100675.59;5067986;28;20040;-62
2021/06/07 02:28:15;;;;;;;4.10;2.63;;;16.80;99.90;;;16.20;95.67;100670.97;5067699;28;20479;-60
2021/06/07 02:30:43;;;;;;;2.53;1.45;;;16.80;99.90;;;16.23;95.57;100668.81;5066199;28;20414;-60
2021/06/07 02:33:10;;;;;;;3.35;1.55;;;16.80;99.90;;;16.22;95.46;100677.69;5068139;28;20426;-61
2021/06/07 02:35:36;;;;;;;3.92;2.28;;;16.80;99.90;;;16.27;95.22;100672.72;5068167;28;20032;-61
2021/06/07 02:38:04;;;;;;;5.03;1.60;;;16.80;99.90;;;16.31;95.37;100677.63;5067704;28;20090;-61
2021/06/07 02:43:06;;;;;;;6.18;2.10;;;16.90;99.90;;;16.28;95.74;100673.53;5116117;22;20117;-61
2021/06/07 02:45:33;;;;;;;3.80;2.20;;;16.90;99.90;;;16.27;95.78;100677.97;5028304;28;20037;-60
2021/06/07 02:48:01;;;;;;;4.18;2.72;;;16.80;99.90;;;16.26;95.70;100681.59;5027863;28;20027;-60
2021/06/07 02:50:40;;;;;;;4.78;2.10;;;16.90;99.90;;;16.23;95.94;100675.88;5027968;28;20033;-61
2021/06/07 02:53:07;;;;;;;4.13;2.22;;;16.90;99.90;;;16.26;95.58;100680.78;5027492;28;20052;-59
2021/06/07 02:55:40;;;;;;;3.53;2.20;;;16.80;99.90;;;16.27;95.52;100677.16;5027835;28;20037;-59
2021/06/07 02:58:07;;;;;;;3.30;1.95;;;16.80;99.90;;;16.27;95.32;100661.38;5027855;28;20048;-59
2021/06/07 03:00:55;;;;;;;2.65;2.20;;;16.90;99.90;;;16.26;95.77;100668.47;5027562;28;20025;-60
2021/06/07 03:03:22;;;;;;;3.45;2.15;;;16.90;99.90;;;16.27;95.39;100670.09;5027738;28;20029;-60
2021/06/07 03:05:51;;;;;;;6.35;2.65;;;16.90;99.90;;;16.37;95.23;100674.31;5027684;28;20038;-59
2021/06/07 03:08:22;;;;;;;7.45;2.30;;;16.90;99.90;;;16.39;95.35;100677.56;5027941;28;20384;-59
2021/06/07 03:10:51;;;;;;;4.45;2.72;;;16.90;99.90;;;16.36;95.55;100675.28;5027511;28;20052;-60
2021/06/07 03:13:19;;;;;;;3.53;2.10;;;16.90;99.90;;;16.29;95.66;100677.81;5027443;28;20025;-61
2021/06/07 03:15:50;;;;;;;6.00;2.33;;;16.90;99.90;;;16.27;95.60;100675.34;5027766;28;20040;-59
2021/06/07 03:19:06;;;;;;;4.13;1.85;;;16.80;99.90;;;16.29;95.44;100674.34;5027517;28;20045;-60
2021/06/07 03:21:33;;;;;;;2.35;1.35;;;16.80;99.90;;;16.39;94.93;100677.56;5027323;28;20029;-61
2021/06/07 03:23:59;;;;;;;2.33;0.82;;;16.90;99.90;;;16.66;92.78;100674.38;5027503;28;20037;-60
2021/06/07 03:26:25;;;;;;;7.32;1.50;;;17.10;99.90;;;16.70;92.43;100683.56;5027545;28;20087;-61
2021/06/07 03:28:51;;;;;;;2.15;1.05;;;17.20;99.90;;;16.70;92.53;100688.81;5025857;28;20080;-60
2021/06/07 03:31:17;;;;;;;4.45;1.55;;;17.20;99.90;;;16.69;92.73;100681.09;5027372;28;20445;-61
2021/06/07 03:33:43;;;;;;;2.53;0.73;;;17.20;99.90;;;16.70;92.46;100674.84;5027628;28;20060;-59
2021/06/07 03:36:10;;;;;;;3.40;1.23;;;17.20;99.90;;;16.70;92.38;100672.22;5027239;28;20372;-59
2021/06/07 03:38:36;;;;;;;4.07;1.15;;;17.30;99.90;;;16.66;92.60;100670.94;5026135;28;20022;-60
2021/06/07 03:41:03;;;;;;;2.45;0.80;;;17.20;99.90;;;16.63;92.83;100677.34;5025702;28;20553;-59
2021/06/07 03:43:33;;;;;;;2.72;1.10;;;17.20;99.90;;;16.66;92.56;100677.00;5025794;28;20057;-61
2021/06/07 03:46:00;;;;;;;3.90;0.85;;;17.20;99.90;;;16.69;92.73;100679.28;5027328;28;20026;-59
2021/06/07 03:48:27;;;;;;;3.20;1.00;;;17.20;99.90;;;16.76;92.38;100672.31;5027180;28;20100;-62
2021/06/07 03:50:59;;;;;;;4.47;1.38;;;17.30;99.90;;;16.85;91.55;100673.88;5027500;28;20029;-60
2021/06/07 03:53:26;;;;;;;2.38;0.90;;;17.40;99.90;;;16.92;90.81;100677.44;5027143;28;20067;-58
2021/06/07 03:55:52;;;;;;;1.58;1.00;;;17.40;99.90;;;16.87;91.34;100677.16;5027529;28;20030;-60
2021/06/07 03:58:18;;;;;;;2.33;1.13;;;17.40;99.90;;;16.94;91.34;100679.06;5027118;28;20033;-60
2021/06/07 04:00:44;;;;;;;1.42;0.77;;;17.50;99.90;;;17.03;91.26;100668.25;5025843;28;20044;-61
2021/06/07 04:03:12;;;;;;;5.03;0.90;;;17.50;99.90;;;17.11;91.06;100675.22;5026991;28;20140;-59
2021/06/07 04:05:39;;;;;;;4.57;0.93;;;17.60;99.90;;;17.15;91.36;100676.50;5030795;28;20025;-60
2021/06/07 04:08:07;;;;;;;2.58;0.90;;;17.70;99.90;;;17.18;91.78;100679.59;5031075;28;20038;-59
2021/06/07 04:10:33;;;;;;;2.78;1.10;;;17.70;99.90;;;17.20;92.01;100680.22;5030997;28;20067;-60
2021/06/07 04:13:00;;;;;;;5.18;1.23;;;17.80;99.90;;;17.17;92.25;100674.50;5030272;28;20247;-59
2021/06/07 04:15:28;;;;;;;2.97;1.13;;;17.80;99.90;;;17.20;92.09;100680.22;5030850;28;20034;-60
2021/06/07 04:17:56;;;;;;;4.90;0.88;;;17.80;99.90;;;17.29;91.81;100675.69;5029403;28;20196;-59
2021/06/07 04:20:26;;;;;;;2.55;1.10;;;17.80;99.90;;;17.34;91.81;100681.22;5029239;28;20034;-59
2021/06/07 04:22:53;;;;;;;1.30;0.65;;;17.90;99.90;;;17.37;91.65;100675.59;5030796;28;20048;-59
2021/06/07 04:25:21;;;;;;;2.65;1.17;;;18.00;99.90;;;17.50;91.33;100678.38;5031221;28;20120;-59
2021/06/07 04:27:49;;;;;;;1.55;0.77;;;18.10;99.90;;;17.63;90.83;100672.44;5030810;28;20026;-59
2021/06/07 04:30:18;;;;;;;1.60;0.73;;;18.20;99.90;;;17.66;90.44;100674.75;5030432;28;20036;-60
2021/06/07 04:32:47;;;;;;;3.17;1.27;;;18.30;99.90;;;17.79;90.40;100682.00;5030453;28;20080;-60
2021/06/07 04:35:15;;;;;;;5.10;0.98;;;18.30;99.90;;;17.76;90.04;100677.91;5030555;28;20507;-59
2021/06/07 04:38:02;;;;;;;1.23;0.50;;;18.40;99.90;;;17.98;88.54;100672.63;5029021;28;20378;-59
2021/06/07 04:40:35;;;;;;;1.27;0.43;;;18.50;99.90;;;18.42;82.52;100677.72;5030016;28;20129;-58
2021/06/07 04:43:07;;;;;;;2.55;0.40;;;18.80;99.90;;;18.79;83.24;100673.97;5029956;28;20046;-59
2021/06/07 04:45:34;;;;;;;4.32;0.50;;;19.10;99.90;;;18.83;83.62;100680.50;5028859;28;20037;-58
2021/06/07 04:48:01;;;;;;;2.22;0.90;;;19.30;99.90;;;18.63;85.50;100677.72;5030119;28;20037;-59
2021/06/07 04:50:30;;;;;;;7.00;1.02;;;19.30;99.90;;;18.51;86.49;100674.75;5029969;28;20140;-59
2021/06/07 04:53:00;;;;;;;2.40;1.05;;;19.20;99.90;;;18.55;86.53;100675.19;5029837;28;20489;-59
2021/06/07 04:55:52;;;;;;;8.00;2.30;;;19.20;99.90;;;18.60;87.04;100691.28;5028562;28;20096;-58
2021/06/07 04:58:27;;;;;;;3.33;1.08;;;19.30;99.90;;;18.64;86.85;100687.25;5029736;28;20075;-61
2021/06/07 05:01:06;;;;;;;3.00;1.15;;;19.20;99.90;;;18.65;86.85;100691.53;5030289;28;20038;-60
2021/06/07 05:03:33;;;;;;;1.60;1.00;;;19.30;99.90;;;18.84;86.52;100690.88;5029841;28;20089;-59
2021/06/07 05:06:00;;;;;;;6.20;1.27;;;19.40;99.90;;;19.10;85.65;100694.66;5029868;28;20049;-60
2021/06/07 05:08:29;;;;;;;2.65;0.80;;;19.80;99.90;;;19.16;84.97;100688.59;5029900;28;20034;-61
2021/06/07 05:10:56;;;;;;;3.05;1.10;;;20.00;99.90;;;19.17;84.40;100691.06;5029934;28;20033;-61
2021/06/07 05:13:24;;;;;;;1.65;1.00;;;19.90;99.90;;;19.22;83.96;100693.13;5044606;28;20040;-62
2021/06/07 05:15:52;;;;;;;1.20;0.82;;;19.90;99.90;;;19.31;83.63;100694.59;5029534;28;20037;-62
2021/06/07 05:18:18;;;;;;;1.05;0.90;;;19.90;99.90;;;19.35;83.32;100687.91;5028124;28;20037;-61
2021/06/07 05:20:45;;;;;;;3.95;1.15;;;20.00;99.90;;;19.55;82.21;100699.38;5029735;28;20321;-60
2021/06/07 05:23:12;;;;;;;3.40;1.08;;;20.10;99.90;;;19.62;82.90;100701.25;5029516;28;20112;-60
2021/06/07 05:25:40;;;;;;;8.48;1.30;;;20.20;99.90;;;19.67;83.24;100698.81;5029417;28;20042;-61
2021/06/07 05:28:09;;;;;;;7.70;1.50;;;20.30;99.90;;;19.66;83.41;100705.13;5029273;28;20044;-58
2021/06/07 05:30:39;;;;;;;3.17;1.50;;;20.30;99.90;;;19.69;83.49;100715.31;5029607;28;20045;-59
2021/06/07 05:33:07;;;;;;;3.70;1.60;;;20.30;99.90;;;19.69;83.53;100710.00;5029395;28;20460;-59
2021/06/07 05:35:37;;;;;;;2.05;1.13;;;20.40;99.90;;;19.76;82.72;100719.59;5029226;28;20052;-61
2021/06/07 05:38:05;;;;;;;6.95;1.30;;;20.40;99.90;;;19.86;82.23;100714.72;5027943;28;20119;-61
2021/06/07 05:40:32;;;;;;;2.75;1.20;;;20.40;99.90;;;19.94;82.06;100712.91;5029156;28;20228;-61
2021/06/07 05:42:59;;;;;;;1.58;1.15;;;20.60;99.90;;;19.88;81.72;100717.16;5028536;28;20412;-59
2021/06/07 05:45:36;;;;;;;1.92;0.70;;;20.60;99.90;;;19.94;80.65;100719.03;5029003;28;20049;-61
2021/06/07 05:48:18;;;;;;;5.53;1.48;;;20.60;99.90;;;20.00;79.73;100722.69;5028881;28;20030;-62
2021/06/07 05:50:44;;;;;;;3.72;1.00;;;20.60;99.90;;;19.91;80.36;100726.53;5028755;28;20172;-62
2021/06/07 05:53:14;;;;;;;3.50;1.02;;;20.50;99.90;;;19.99;80.20;100723.72;5028805;28;20145;-59
2021/06/07 05:55:43;;;;;;;1.55;0.93;;;20.60;99.90;;;20.01;80.49;100722.50;5028640;28;20508;-62
2021/06/07 05:58:17;;;;;;;3.28;1.52;;;20.60;99.90;;;20.04;80.56;100730.03;5028797;28;20033;-62
2021/06/07 06:00:46;;;;;;;2.97;1.20;;;20.60;99.90;;;20.06;80.75;100728.00;5028618;28;20034;-61
2021/06/07 06:03:13;;;;;;;3.58;0.88;;;20.60;99.90;;;20.12;81.07;100726.41;5028739;28;20037;-59
2021/06/07 06:05:41;;;;;;;2.83;1.00;;;20.70;99.90;;;20.20;81.08;100723.56;5028588;28;20045;-59
2021/06/07 06:08:09;;;;;;;1.52;1.05;;;20.80;99.90;;;20.23;81.29;100719.72;5027101;28;20029;-62
2021/06/07 06:10:36;;;;;;;3.85;1.58;;;20.80;99.90;;;20.23;81.40;100719.72;5028756;28;20052;-61
2021/06/07 06:13:03;;;;;;;1.77;0.90;;;20.90;99.90;;;20.24;81.37;100722.16;5028501;28;20045;-64
2021/06/07 06:15:30;;;;;;;1.80;1.17;;;20.90;99.90;;;20.31;81.21;100714.22;5028412;28;20116;-58
2021/06/07 06:17:56;;;;;;;2.15;1.20;;;20.90;99.90;;;20.37;81.20;100724.78;5028433;28;20120;-59
2021/06/07 06:20:28;;;;;;;4.45;1.13;;;20.90;99.90;;;20.56;80.43;100723.22;5028216;28;20029;-62
2021/06/07 06:22:54;;;;;;;3.22;1.00;;;21.00;99.90;;;20.76;78.29;100718.75;5027995;28;20075;-63
2021/06/07 06:25:20;;;;;;;5.28;1.40;;;21.20;99.90;;;20.86;77.37;100720.94;5028277;28;20033;-59
2021/06/07 06:27:46;;;;;;;5.55;1.15;;;21.30;99.90;;;21.11;76.29;100726.44;5027400;28;20431;-62
2021/06/07 06:30:18;;;;;;;4.53;0.95;;;21.50;99.90;;;21.13;74.56;100725.19;5028031;28;20102;-60
2021/06/07 06:32:51;;;;;;;3.45;1.20;;;21.60;99.90;;;21.15;74.85;100725.00;5028697;28;20132;-60
2021/06/07 06:35:18;;;;;;;3.10;1.20;;;21.70;99.90;;;21.16;75.15;100724.78;5028060;28;20080;-59
2021/06/07 06:37:45;;;;;;;2.28;1.10;;;21.70;99.90;;;21.05;74.42;100728.06;5028417;28;20141;-58
2021/06/07 06:40:23;;;;;;;4.25;1.00;;;21.60;99.90;;;20.83;73.52;100724.00;5028161;28;20083;-61
2021/06/07 06:42:55;;;;;;;1.45;0.80;;;21.50;99.90;;;20.80;72.08;100724.41;5027835;28;20049;-63
2021/06/07 06:45:22;;;;;;;0.77;0.47;;;21.40;99.90;;;20.75;71.89;100733.00;5028633;28;20514;-58
2021/06/07 06:47:56;;;;;;;0.95;0.55;;;21.30;99.90;;;20.73;70.09;100728.94;5028065;28;20029;-62
2021/06/07 06:50:33;;;;;;;0.90;0.60;;;21.30;99.90;;;20.70;70.67;100732.78;5026531;28;20026;-59
2021/06/07 06:53:00;;;;;;;0.77;0.60;;;21.30;99.90;;;20.69;70.51;100728.53;5026630;28;20412;-58
2021/06/07 06:55:26;;;;;;;1.38;0.70;;;21.30;99.90;;;20.79;70.57;100734.22;5027817;28;20112;-59
2021/06/07 06:57:52;;;;;;;0.80;0.52;;;21.30;99.90;;;20.91;69.69;100744.97;5028225;28;20096;-60
2021/06/07 07:00:20;;;;;;;0.80;0.40;;;21.40;99.90;;;20.94;69.86;100735.81;5027614;28;20030;-57
2021/06/07 07:02:46;;;;;;;5.22;0.50;;;21.50;99.90;;;21.25;69.52;100746.63;5027660;28;20065;-62
2021/06/07 07:05:12;;;;;;;2.28;1.13;;;21.70;99.90;;;21.42;69.09;100739.00;5026361;28;20492;-60
2021/06/07 07:07:38;;;;;;;2.38;0.50;;;21.90;99.90;;;21.44;68.28;100731.66;5027754;28;20037;-62
2021/06/07 07:10:07;;;;;;;0.82;0.50;;;21.90;99.90;;;21.40;67.85;100739.22;5027927;28;20481;-59
2021/06/07 07:12:34;;;;;;;1.90;0.40;;;22.00;99.90;;;21.58;67.74;100729.78;5027527;28;20037;-55
2021/06/07 07:15:01;;;;;;;1.88;0.50;;;22.10;99.90;;;21.53;67.12;100733.88;5027384;28;20032;-62
2021/06/07 07:17:28;;;;;;;2.38;0.50;;;22.10;99.90;;;21.56;67.05;100734.47;5027453;28;20048;-63
2021/06/07 07:19:55;;;;;;;1.25;0.60;;;22.10;99.90;;;21.51;66.59;100733.25;5026255;28;20037;-62
2021/06/07 07:22:21;;;;;;;1.02;0.50;;;22.20;99.90;;;21.72;66.54;100731.34;5027291;28;20044;-63
2021/06/07 07:24:49;;;;;;;0.93;0.70;;;22.30;99.90;;;21.82;65.46;100739.66;5027707;28;20038;-57
2021/06/07 07:27:19;;;;;;;0.80;0.50;;;22.40;99.90;;;22.18;64.79;100731.13;5009399;28;20542;-53
2021/06/07 07:29:46;;;;;;;1.15;0.88;;;22.60;99.90;;;22.42;65.00;100735.66;5027599;28;20071;-57
2021/06/07 07:32:12;;;;;;;1.48;0.80;;;22.90;99.90;;;22.49;64.52;100727.63;5027368;28;20064;-58
2021/06/07 07:34:40;;;;;;;1.40;0.80;;;23.00;99.90;;;22.50;63.62;100731.91;5027368;28;20448;-57
2021/06/07 07:37:18;;;;;;;2.90;1.15;;;23.10;99.90;;;22.87;62.27;100740.00;5025843;28;20255;-57
2021/06/07 07:39:44;;;;;;;1.10;0.70;;;23.40;99.90;;;23.05;61.66;100737.38;5031369;28;20364;-57
2021/06/07 07:42:33;;;;;;;2.58;0.52;;;23.70;99.90;;;22.89;59.88;100725.47;5030995;28;20057;-58
2021/06/07 07:45:02;;;;;;;1.63;0.60;;;23.50;99.80;;;22.94;62.14;100722.16;5031485;28;20110;-56
2021/06/07 07:47:29;;;;;;;3.63;0.77;;;23.60;99.90;;;22.70;63.06;100732.53;5031297;28;20030;-56
2021/06/07 07:49:56;;;;;;;1.10;0.82;;;23.50;99.90;;;22.75;62.67;100734.56;5031245;28;20489;-58
2021/06/07 07:52:23;;;;;;;1.25;0.90;;;23.40;99.90;;;22.67;62.43;100727.69;5031028;28;20079;-58
2021/06/07 07:54:54;;;;;;;1.50;1.10;;;23.40;99.90;;;22.83;61.89;100726.34;5029168;28;20041;-58
2021/06/07 07:57:22;;;;;;;1.27;0.88;;;23.40;99.90;;;22.94;61.12;100732.78;5030957;28;20037;-57
2021/06/07 07:59:48;;;;;;;1.80;0.90;;;23.40;99.90;;;23.11;60.97;100739.16;5030997;28;20037;-58
2021/06/07 08:02:14;;;;;;;2.88;0.93;;;23.50;99.90;;;23.09;60.71;100742.03;5030856;28;20496;-56
2021/06/07 08:04:41;;;;;;;1.83;0.93;;;23.60;99.70;;;23.55;60.28;100739.94;5030901;28;20030;-55
2021/06/07 08:07:08;;;;;;;1.20;0.70;;;24.00;99.50;;;24.03;58.87;100738.06;5029334;28;20064;-54
2021/06/07 08:09:35;;;;;;;6.18;1.17;;;24.50;98.80;;;24.14;59.02;100742.59;5030787;28;20034;-58
2021/06/07 08:12:03;;;;;;;3.65;1.60;;;24.80;98.10;;;24.05;58.79;100743.97;5030810;28;20041;-56
2021/06/07 08:14:30;;;;;;;1.30;1.00;;;24.70;97.60;;;24.00;58.41;100749.16;5030683;28;20500;-57
2021/06/07 08:16:57;;;;;;;1.55;0.93;;;24.80;96.80;;;24.09;58.23;100741.69;5029092;28;20388;-57
2021/06/07 08:19:25;;;;;;;1.27;0.88;;;24.80;96.80;;;24.76;56.85;100745.75;5030560;28;20053;-58
2021/06/07 08:21:52;;;;;;;2.10;0.95;;;25.40;95.80;;;25.22;55.75;100754.00;5029443;28;20052;-55
2021/06/07 08:24:19;;;;;;;1.80;0.90;;;26.00;94.50;;;25.36;55.21;100753.50;5029049;28;20033;-57
2021/06/07 08:26:45;;;;;;;1.38;0.70;;;26.20;93.10;;;25.67;54.34;100749.63;5028951;28;20548;-54
2021/06/07 08:29:11;;;;;;;1.08;0.70;;;26.40;93.00;;;25.91;53.14;100746.88;5030470;28;20033;-60
2021/06/07 08:31:38;;;;;;;3.10;0.82;;;26.80;90.80;;;25.05;54.81;100756.53;5028932;28;20044;-56
2021/06/07 08:34:04;;;;;;;3.97;0.57;;;26.30;90.50;;;25.05;54.45;100748.53;5030349;28;20143;-55
2021/06/07 08:36:31;;;;;;;2.03;0.82;;;26.10;90.30;;;25.56;53.61;100752.28;5030638;28;20383;-53
2021/06/07 08:38:57;;;;;;;1.45;0.73;;;26.50;90.40;;;25.53;53.00;100753.56;5030208;28;20550;-61
2021/06/07 08:41:24;;;;;;;0.93;0.50;;;26.50;88.50;;;25.89;52.37;100755.13;5013396;28;20374;-63
2021/06/07 08:43:51;;;;;;;1.73;0.60;;;26.70;87.40;;;26.32;51.06;100754.59;4992545;28;20069;-54
2021/06/07 08:46:17;;;;;;;0.90;0.47;;;27.10;85.50;;;26.41;50.73;100755.81;5010351;28;20141;-60
2021/06/07 08:48:43;;;;;;;0.85;0.60;;;27.20;84.20;;;26.46;50.32;100751.63;5010674;28;20184;-51
2021/06/07 08:51:10;;;;;;;0.90;0.65;;;27.40;82.70;;;26.07;50.45;100749.56;5008025;28;20076;-59
2021/06/07 08:53:37;;;;;;;0.90;0.73;;;27.20;81.10;;;26.19;50.66;100756.72;5010493;28;20038;-54
2021/06/07 08:56:04;;;;;;;1.00;0.50;;;27.30;80.70;;;26.58;49.76;100753.13;5010123;28;20523;-58
2021/06/07 08:58:30;;;;;;;4.05;0.60;;;27.40;80.40;;;26.68;49.98;100755.16;5010533;28;20433;-58
2021/06/07 09:00:56;;;;;;;3.83;0.70;;;27.50;80.50;;;26.47;51.11;100756.69;5010500;28;20034;-56
2021/06/07 09:03:29;;;;;;;2.92;0.75;;;27.40;81.80;;;26.47;52.19;100755.91;5009874;28;20030;-56
2021/06/07 09:05:59;;;;;;;1.20;0.80;;;27.40;83.00;;;26.70;52.35;100759.22;5008686;28;20124;-57
2021/06/07 09:08:33;;;;;;;0.80;0.63;;;27.50;85.40;;;26.85;51.62;100750.63;5009925;28;20347;-55
2021/06/07 09:11:11;;;;;;;2.55;0.80;;;27.80;83.70;;;27.17;50.19;100748.16;5008290;28;20033;-53
2021/06/07 09:13:38;;;;;;;1.08;0.93;;;27.90;81.90;;;27.27;50.30;100755.50;5008247;28;20461;-53
2021/06/07 09:16:06;;;;;;;1.90;0.70;;;28.10;80.70;;;26.89;51.36;100761.63;5009852;28;20064;-51
2021/06/07 09:18:37;;;;;;;2.75;1.33;;;27.90;81.00;;;27.02;51.36;100758.63;5009851;28;20025;-53
2021/06/07 09:21:13;;;;;;;1.85;0.80;;;27.80;81.60;;;27.01;50.97;100749.00;5009936;28;20100;-59
2021/06/07 09:23:54;;;;;;;2.05;0.95;;;27.90;81.30;;;27.23;50.22;100752.50;5007729;28;20425;-56
2021/06/07 09:26:36;;;;;;;2.40;0.85;;;28.00;81.10;;;27.43;49.96;100746.59;5016612;28;20172;-58
2021/06/07 09:29:10;;;;;;;2.25;0.80;;;28.20;80.50;;;28.08;48.64;100749.22;5011390;28;20045;-52
2021/06/07 09:31:41;;;;;;;1.47;0.87;;;28.80;79.60;;;28.20;48.76;100749.06;5006977;28;20040;-59
2021/06/07 09:34:09;;;;;;;2.72;0.82;;;29.00;78.90;;;28.25;48.57;100753.69;5008984;28;20084;-58
2021/06/07 09:36:43;;;;;;;3.15;0.90;;;29.20;77.40;;;28.16;48.22;100749.81;5009339;28;20030;-55
2021/06/07 09:39:18;;;;;;;2.67;0.83;;;29.10;77.10;;;28.33;48.55;100750.56;5009506;28;20042;-58
2021/06/07 09:41:52;;;;;;;1.65;0.70;;;29.20;76.90;;;28.41;47.44;100748.19;5023920;28;20042;-55
2021/06/07 09:44:46;;;;;;;2.80;0.52;;;29.50;74.80;;;28.07;48.07;100752.16;5009280;28;20030;-53
2021/06/07 09:47:32;;;;;;;2.60;0.88;;;29.00;74.70;;;28.98;46.51;100755.59;5008202;28;20034;-59
2021/06/07 09:50:07;;;;;;;1.42;0.82;;;29.40;75.80;;;29.00;46.50;100755.34;5009407;28;20346;-58
2021/06/07 09:52:33;;;;;;;2.83;1.90;;;29.80;74.20;;;28.69;46.80;100749.75;5009085;28;20042;-58
2021/06/07 09:55:18;;;;;;;2.53;1.02;;;29.70;73.50;;;28.56;46.21;100755.56;5008947;28;20034;-56
2021/06/07 09:58:00;;;;;;;1.75;1.05;;;29.60;72.30;;;28.42;47.60;100751.69;5008984;28;20494;-61
2021/06/07 10:00:50;;;;;;;1.98;1.17;;;29.40;72.80;;;28.36;46.31;100750.81;5009119;28;20093;-55
2021/06/07 10:03:27;;;;;;;1.40;1.17;;;29.40;71.20;;;28.56;46.61;100754.75;5023230;28;20472;-58
2021/06/07 10:06:25;;;;;;;2.55;1.30;;;29.40;72.80;;;28.31;46.91;100750.00;5009138;28;20034;-54
2021/06/07 10:08:59;;;;;;;1.67;0.80;;;29.10;72.70;;;28.32;46.55;100754.31;5007495;28;20049;-56
2021/06/07 10:11:40;;;;;;;2.67;1.10;;;29.10;72.70;;;28.78;45.93;100749.28;5023408;28;20095;-55
2021/06/07 10:14:19;;;;;;;2.78;0.95;;;29.40;72.00;;;28.91;45.44;100756.88;5023649;28;20034;-54
2021/06/07 10:17:01;;;;;;;1.25;0.93;;;29.70;71.20;;;28.88;45.44;100744.00;5008827;28;20026;-52
2021/06/07 10:22:13;;;;;;;2.30;0.90;;;29.70;69.90;;;29.49;44.61;100752.38;5008487;28;20853;-56
2021/06/07 10:24:40;;;;;;;2.67;1.05;;;30.10;69.90;;;29.92;42.80;100746.59;5008821;28;20121;-57
2021/06/07 10:27:07;;;;;;;3.00;1.15;;;30.50;68.10;;;30.35;42.49;100758.75;5023282;28;20029;-53
2021/06/07 10:29:42;;;;;;;1.25;1.15;;;30.90;67.80;;;29.91;42.96;100750.34;5023712;28;20076;-54